Terminal Aerodrome Forecast
Issued by NWS Rapid City, SD

Home | Current Version | Previous Version | Text Only | Print | Product List | Glossary On
Versions: 1 2 3 4 5 6 7 8 9 10 11 12 13 14
000
FTUS43 KUNR 310016 AAA
TAFRAP
TAF AMD
KRAP 310016Z 3100/3124 30014KT P6SM VCSH BKN150
      TEMPO 3101/3103 VRB35KT -TSRA BKN100CB
     FM311100 32022G32KT P6SM BKN150=

USA.gov is the U.S. government's official web portal to all federal, state and local government web resources and services.